Terminal Aerodrome Forecast
Issued by NWS

Home | Current Version | Previous Version | Text Only | Print | Product List | Glossary On
Versions: 1 2 3 4 5 6 7 8 9 10 11 12 13 14 15 16 17 18
000
FTUS42 KTAE 121120
TAFDHN
TAF
KDHN 121120Z 1212/1312 00000KT P6SM SCT002 BKN012
      TEMPO 1212/1214 1/2SM FG VV002
     FM121400 00000KT P6SM VCTS SCT004CB BKN015
     FM121500 00000KT P6SM SCT008 BKN015
      TEMPO 1215/1219 4SM TSRA BKN010CB OVC015
     FM122100 VRB04KT 6SM SHRA VCTS BKN025CB
     FM130000 03009KT P6SM BKN008=

USA.gov is the U.S. government's official web portal to all federal, state and local government web resources and services.